Time;durP1;ratioP1;P1;durP2;ratioP2;P2;SDS_P1;SDS_P2;PMS_P1;PMS_P2;Temp;Humidity;BMP_temperature;BMP_pressure;BME280_temperature;BME280_humidity;BME280_pressure;Samples;Min_cycle;Max_cycle;Signal;HPM_P1;HPM_P2
2022/09/27 00:01:33;;;;;;;8.32;2.03;;;10.40;99.90;;;;;;4947237;28;20028;-79
2022/09/27 00:03:59;;;;;;;10.07;2.85;;;10.40;99.90;;;;;;4947541;28;20781;-80
2022/09/27 00:06:29;;;;;;;10.50;2.97;;;10.40;99.90;;;;;;4929763;28;20539;-79
2022/09/27 00:08:55;;;;;;;12.75;2.70;;;10.30;99.90;;;;;;4927321;28;20522;-79
2022/09/27 00:11:35;;;;;;;7.80;2.83;;;10.30;99.90;;;;;;4933306;28;20369;-79
2022/09/27 00:14:01;;;;;;;9.40;3.20;;;10.30;99.90;;;;;;4947988;28;20490;-78
2022/09/27 00:16:28;;;;;;;7.03;3.10;;;10.30;99.90;;;;;;4945994;28;20031;-79
2022/09/27 00:18:59;;;;;;;8.48;2.80;;;10.30;99.90;;;;;;4938027;28;20038;-79
2022/09/27 00:21:24;;;;;;;7.22;3.35;;;10.30;99.90;;;;;;4941406;28;20035;-79
2022/09/27 00:23:50;;;;;;;4.72;2.42;;;10.30;99.90;;;;;;4961607;28;20049;-80
2022/09/27 00:26:15;;;;;;;7.90;3.55;;;10.30;99.90;;;;;;4942753;28;20064;-79
2022/09/27 00:28:41;;;;;;;10.25;3.65;;;10.30;99.90;;;;;;4930078;28;20031;-79
2022/09/27 00:31:23;;;;;;;7.18;4.00;;;10.20;99.90;;;;;;4942883;28;20121;-80
2022/09/27 00:33:50;;;;;;;18.20;4.47;;;10.20;99.90;;;;;;4950616;28;20187;-79
2022/09/27 00:36:16;;;;;;;7.78;3.40;;;10.20;99.90;;;;;;4942012;28;20387;-79
2022/09/27 00:38:41;;;;;;;8.23;3.58;;;10.10;99.90;;;;;;4929859;28;20042;-79
2022/09/27 00:41:19;;;;;;;11.18;3.35;;;10.10;99.90;;;;;;4939267;28;20484;-79
2022/09/27 00:43:49;;;;;;;12.73;4.60;;;10.10;99.90;;;;;;4963344;28;20023;-80
2022/09/27 00:46:23;;;;;;;9.98;5.78;;;10.10;99.90;;;;;;4945002;28;20030;-79
2022/09/27 00:48:51;;;;;;;10.27;5.63;;;10.10;99.90;;;;;;4958598;28;20643;-79
2022/09/27 00:51:16;;;;;;;9.00;4.78;;;10.10;99.90;;;;;;4942377;28;20042;-80
2022/09/27 00:53:50;;;;;;;7.45;5.05;;;10.20;99.90;;;;;;4925455;28;20035;-79
2022/09/27 00:56:18;;;;;;;10.38;5.07;;;10.20;99.90;;;;;;4945814;28;20039;-80
2022/09/27 00:58:48;;;;;;;8.07;3.70;;;10.10;99.90;;;;;;4942254;28;20111;-79
2022/09/27 01:01:14;;;;;;;7.20;3.25;;;10.20;99.90;;;;;;4927341;28;20061;-80
2022/09/27 01:03:45;;;;;;;10.25;5.43;;;10.20;99.90;;;;;;4947061;28;20023;-81
2022/09/27 01:06:11;;;;;;;21.95;5.30;;;10.10;99.90;;;;;;4956560;28;20036;-80
2022/09/27 01:08:36;;;;;;;7.63;4.38;;;10.10;99.90;;;;;;4947925;28;20041;-80
2022/09/27 01:11:30;;;;;;;10.32;4.35;;;10.10;99.90;;;;;;4939261;28;20620;-83
2022/09/27 01:14:35;;;;;;;7.55;3.88;;;10.10;99.90;;;;;;4954508;28;20387;-84
2022/09/27 01:17:17;;;;;;;8.93;4.22;;;10.10;99.90;;;;;;4945941;28;20491;-84
2022/09/27 01:20:01;;;;;;;11.43;4.82;;;10.10;99.90;;;;;;4946897;28;20038;-84
2022/09/27 01:22:32;;;;;;;13.98;5.63;;;10.10;99.90;;;;;;4957894;28;20034;-84
2022/09/27 01:25:02;;;;;;;9.90;4.93;;;10.10;99.90;;;;;;4945028;28;20035;-84
2022/09/27 01:27:49;;;;;;;10.15;5.30;;;10.10;99.90;;;;;;4947947;28;20035;-84
2022/09/27 01:30:14;;;;;;;16.00;7.75;;;10.10;99.90;;;;;;4936844;28;20035;-84
2022/09/27 01:32:58;;;;;;;12.15;7.55;;;10.00;99.90;;;;;;4961476;28;20518;-83
2022/09/27 01:36:01;;;;;;;8.63;4.57;;;10.00;99.90;;;;;;4960838;28;20041;-83
2022/09/27 01:38:26;;;;;;;17.52;9.55;;;10.10;99.90;;;;;;4973313;28;20027;-83
2022/09/27 01:41:08;;;;;;;15.85;8.68;;;10.00;99.90;;;;;;4964308;28;20034;-84
2022/09/27 01:43:37;;;;;;;9.45;7.50;;;10.00;99.90;;;;;;4930396;28;20035;-83
2022/09/27 01:46:09;;;;;;;11.85;6.53;;;10.10;99.90;;;;;;4952226;28;20597;-83
2022/09/27 01:48:39;;;;;;;16.30;10.13;;;10.00;99.90;;;;;;4961509;28;20031;-83
2022/09/27 01:51:10;;;;;;;9.45;6.28;;;10.10;99.90;;;;;;4964441;28;20046;-83
2022/09/27 01:53:57;;;;;;;16.50;7.45;;;10.10;99.90;;;;;;4931969;28;20065;-83
2022/09/27 01:56:27;;;;;;;9.68;5.68;;;10.10;99.90;;;;;;4959009;28;20554;-84
2022/09/27 01:58:56;;;;;;;13.70;9.50;;;10.00;99.90;;;;;;4946824;28;20062;-83
2022/09/27 02:01:21;;;;;;;8.15;5.75;;;10.20;99.90;;;;;;4948556;28;20034;-83
2022/09/27 02:03:49;;;;;;;15.40;7.95;;;10.00;99.90;;;;;;4946420;28;20402;-83
2022/09/27 02:06:21;;;;;;;12.05;7.13;;;10.10;99.90;;;;;;4945644;28;20042;-84
2022/09/27 02:08:57;;;;;;;20.10;7.93;;;10.00;99.90;;;;;;4963531;28;20028;-84
2022/09/27 02:11:22;;;;;;;9.75;7.05;;;10.00;99.90;;;;;;4931869;28;20031;-83
2022/09/27 02:14:06;;;;;;;6.88;5.43;;;10.00;99.90;;;;;;4930464;28;20033;-84
2022/09/27 02:16:51;;;;;;;12.50;5.68;;;10.00;99.90;;;;;;4960931;28;20042;-84
2022/09/27 02:19:31;;;;;;;13.73;8.68;;;10.00;99.90;;;;;;4950165;28;20506;-84
2022/09/27 02:22:11;;;;;;;14.80;8.43;;;10.00;99.90;;;;;;4949459;28;20509;-84
2022/09/27 02:24:40;;;;;;;8.18;3.67;;;10.00;99.90;;;;;;4979682;28;20055;-83
2022/09/27 02:27:11;;;;;;;15.65;6.10;;;10.00;99.90;;;;;;4946553;28;20027;-83
2022/09/27 02:29:40;;;;;;;10.48;6.90;;;10.00;99.90;;;;;;4948997;28;20034;-83
2022/09/27 02:32:05;;;;;;;17.50;7.18;;;10.00;99.90;;;;;;4943996;28;20494;-84
2022/09/27 02:34:32;;;;;;;10.73;5.38;;;9.90;99.90;;;;;;4933344;28;20121;-83
2022/09/27 02:36:57;;;;;;;9.52;6.85;;;10.00;99.90;;;;;;4949573;28;20074;-83
2022/09/27 02:39:23;;;;;;;10.05;6.57;;;9.90;99.90;;;;;;4928217;28;20058;-84
2022/09/27 02:41:48;;;;;;;13.95;6.63;;;9.90;99.90;;;;;;4961112;28;20023;-84
2022/09/27 02:44:15;;;;;;;18.95;7.68;;;9.90;99.90;;;;;;4934758;28;20169;-83
2022/09/27 02:47:03;;;;;;;10.23;6.47;;;10.00;99.90;;;;;;4934823;28;20073;-83
2022/09/27 02:49:52;;;;;;;14.43;7.43;;;9.90;99.90;;;;;;4964529;28;20035;-83
2022/09/27 02:52:29;;;;;;;11.20;6.72;;;9.90;99.90;;;;;;4960618;28;20534;-79
2022/09/27 02:54:57;;;;;;;10.40;7.40;;;9.90;99.90;;;;;;4967441;28;20042;-80
2022/09/27 02:57:56;;;;;;;15.75;8.95;;;9.90;99.90;;;;;;4964748;28;20402;-79
2022/09/27 03:00:26;;;;;;;10.52;7.60;;;9.90;99.90;;;;;;4944309;28;20031;-79
2022/09/27 03:03:08;;;;;;;17.42;8.70;;;9.90;99.90;;;;;;4954340;28;20042;-81
2022/09/27 03:05:45;;;;;;;12.68;6.82;;;9.90;99.90;;;;;;4948098;28;20031;-79
2022/09/27 03:08:11;;;;;;;15.05;8.52;;;9.90;99.90;;;;;;4963958;28;20039;-79
2022/09/27 03:10:36;;;;;;;9.57;6.97;;;9.90;99.90;;;;;;4927375;28;20038;-80
2022/09/27 03:13:03;;;;;;;9.23;6.38;;;9.90;99.90;;;;;;4947923;28;20602;-80
2022/09/27 03:15:29;;;;;;;15.95;7.90;;;9.90;99.90;;;;;;4943864;28;20031;-79
2022/09/27 03:17:55;;;;;;;11.13;6.63;;;9.80;99.90;;;;;;4941510;28;20207;-79
2022/09/27 03:20:20;;;;;;;14.32;7.82;;;9.90;99.90;;;;;;4941064;28;20054;-79
2022/09/27 03:22:46;;;;;;;15.73;7.13;;;9.80;99.90;;;;;;4960060;28;20039;-83
2022/09/27 03:25:11;;;;;;;11.27;7.90;;;9.80;99.90;;;;;;4961875;28;20030;-83
2022/09/27 03:27:37;;;;;;;17.83;8.00;;;9.70;99.90;;;;;;4961099;28;20067;-83
2022/09/27 03:30:05;;;;;;;14.75;6.18;;;9.70;99.90;;;;;;4930547;28;20038;-84
2022/09/27 03:32:30;;;;;;;10.10;5.70;;;9.60;99.90;;;;;;4960330;28;20398;-84
2022/09/27 03:34:56;;;;;;;11.32;6.90;;;9.60;99.90;;;;;;4961274;28;20038;-83
2022/09/27 03:37:21;;;;;;;12.48;7.53;;;9.50;99.90;;;;;;4932259;28;20043;-83
2022/09/27 03:39:47;;;;;;;11.90;6.18;;;9.60;99.90;;;;;;4961323;28;20055;-83
2022/09/27 03:42:13;;;;;;;8.43;4.90;;;9.50;99.90;;;;;;4929806;28;20129;-84
2022/09/27 03:44:38;;;;;;;7.90;5.80;;;9.50;99.90;;;;;;4959449;28;20133;-82
2022/09/27 03:47:04;;;;;;;7.57;5.80;;;9.60;99.90;;;;;;4945731;28;20039;-83
2022/09/27 03:49:31;;;;;;;5.47;4.10;;;9.60;99.90;;;;;;4924846;28;20031;-82
2022/09/27 03:51:57;;;;;;;11.05;4.68;;;9.50;99.90;;;;;;4965375;28;20058;-83
2022/09/27 03:54:23;;;;;;;7.78;4.25;;;9.50;99.90;;;;;;4928234;28;20086;-82
2022/09/27 03:56:51;;;;;;;9.48;6.00;;;9.50;99.90;;;;;;4925878;28;20460;-82
2022/09/27 03:59:16;;;;;;;11.35;6.47;;;9.50;99.90;;;;;;4963854;28;20147;-82
2022/09/27 04:01:44;;;;;;;10.15;5.70;;;9.50;99.90;;;;;;4930091;28;20457;-82
2022/09/27 04:04:09;;;;;;;15.25;6.25;;;9.50;99.90;;;;;;4949708;28;20043;-83
2022/09/27 04:06:35;;;;;;;8.98;3.35;;;9.60;99.90;;;;;;4966269;28;20065;-82
2022/09/27 04:09:01;;;;;;;8.77;5.60;;;9.50;99.90;;;;;;4943259;28;20056;-82
2022/09/27 04:11:27;;;;;;;16.45;8.20;;;9.60;99.90;;;;;;4947664;28;20031;-83
2022/09/27 04:13:52;;;;;;;14.75;8.18;;;9.50;99.90;;;;;;4944748;28;20031;-83
2022/09/27 04:16:18;;;;;;;14.60;7.25;;;9.50;99.90;;;;;;4928202;28;20046;-82
2022/09/27 04:18:44;;;;;;;12.55;7.82;;;9.50;99.90;;;;;;4958232;28;20039;-82
2022/09/27 04:21:09;;;;;;;11.30;7.32;;;9.50;99.90;;;;;;4931077;28;20035;-82
2022/09/27 04:23:35;;;;;;;15.00;7.78;;;9.40;99.90;;;;;;4944532;28;20058;-82
2022/09/27 04:26:01;;;;;;;9.10;5.97;;;9.50;99.90;;;;;;4963123;28;20034;-82
2022/09/27 04:28:28;;;;;;;9.50;6.18;;;9.50;99.90;;;;;;4960714;28;20031;-82
2022/09/27 04:30:55;;;;;;;13.13;8.70;;;9.50;99.90;;;;;;4965009;28;20042;-82
2022/09/27 04:33:20;;;;;;;9.90;6.30;;;9.50;99.90;;;;;;4945459;28;20533;-82
2022/09/27 04:38:30;;;;;;;11.35;6.65;;;9.40;99.90;;;;;;4962764;28;20093;-81
2022/09/27 04:40:56;;;;;;;13.30;6.75;;;9.40;99.90;;;;;;4964521;28;20035;-83
2022/09/27 04:43:21;;;;;;;8.93;6.55;;;9.40;99.90;;;;;;4959082;28;20054;-82
2022/09/27 04:45:47;;;;;;;9.52;7.00;;;9.40;99.90;;;;;;4935382;28;20119;-82
2022/09/27 04:48:12;;;;;;;12.57;5.60;;;9.40;99.90;;;;;;4929002;28;20042;-82
2022/09/27 04:50:39;;;;;;;10.13;6.47;;;9.30;99.90;;;;;;4943791;28;20089;-82
2022/09/27 04:53:05;;;;;;;16.83;7.78;;;9.30;99.90;;;;;;4945270;28;20038;-82
2022/09/27 04:55:30;;;;;;;13.40;8.38;;;9.40;99.90;;;;;;4963692;28;20113;-81
2022/09/27 04:57:56;;;;;;;10.05;7.43;;;9.40;99.90;;;;;;4966404;28;20561;-81
2022/09/27 05:00:22;;;;;;;12.18;6.28;;;9.30;99.90;;;;;;4946771;28;20085;-82
2022/09/27 05:02:47;;;;;;;9.20;5.78;;;9.30;99.90;;;;;;4959008;28;20027;-82
2022/09/27 05:05:14;;;;;;;12.02;6.80;;;9.50;99.90;;;;;;4948770;28;20045;-82
2022/09/27 05:07:40;;;;;;;13.07;6.15;;;9.30;99.90;;;;;;4946916;28;20406;-82
2022/09/27 05:10:07;;;;;;;10.35;6.00;;;9.30;99.90;;;;;;4944394;28;20027;-82
2022/09/27 05:12:32;;;;;;;13.40;5.82;;;9.30;99.90;;;;;;4948330;28;20126;-81
2022/09/27 05:14:59;;;;;;;12.02;4.57;;;9.30;99.90;;;;;;4963473;28;20194;-82
2022/09/27 05:17:25;;;;;;;12.05;5.07;;;9.30;99.90;;;;;;4959827;28;20043;-82
2022/09/27 05:19:51;;;;;;;8.32;3.25;;;9.20;99.90;;;;;;4958266;28;20034;-82
2022/09/27 05:22:17;;;;;;;7.28;3.88;;;9.20;99.90;;;;;;4944733;28;20043;-81
2022/09/27 05:24:42;;;;;;;7.82;4.40;;;9.10;99.90;;;;;;4960308;28;20034;-82
2022/09/27 05:27:13;;;;;;;10.75;4.75;;;9.20;99.90;;;;;;4928220;28;20047;-82
2022/09/27 05:29:40;;;;;;;6.75;3.22;;;9.10;99.90;;;;;;4960984;28;20679;-82
2022/09/27 05:32:06;;;;;;;7.88;4.00;;;9.20;99.90;;;;;;4965985;28;20058;-81
2022/09/27 05:34:33;;;;;;;7.97;5.15;;;9.10;99.90;;;;;;4934291;28;20061;-82
2022/09/27 05:36:58;;;;;;;6.93;2.78;;;9.20;99.90;;;;;;4962027;28;20046;-81
2022/09/27 05:39:24;;;;;;;5.75;2.22;;;9.20;99.90;;;;;;4926988;28;20031;-81
2022/09/27 05:41:49;;;;;;;14.30;6.07;;;9.20;99.90;;;;;;4960025;28;20415;-81
2022/09/27 05:44:16;;;;;;;12.10;4.60;;;9.20;99.90;;;;;;4960947;28;20032;-81
2022/09/27 05:46:42;;;;;;;7.30;3.53;;;9.20;99.90;;;;;;4946257;28;20022;-82
2022/09/27 05:49:07;;;;;;;10.60;3.42;;;9.10;99.90;;;;;;4935014;28;20435;-81
2022/09/27 05:51:33;;;;;;;6.57;3.40;;;9.10;99.90;;;;;;4930513;28;20094;-82
2022/09/27 05:53:59;;;;;;;10.10;4.00;;;9.10;99.90;;;;;;4944184;28;20115;-82
2022/09/27 05:56:24;;;;;;;6.72;3.05;;;9.10;99.90;;;;;;4944524;28;20043;-82
2022/09/27 05:58:50;;;;;;;8.80;2.80;;;9.20;99.90;;;;;;4961204;28;20117;-82
2022/09/27 06:01:16;;;;;;;3.70;2.42;;;9.20;99.90;;;;;;4962157;28;20551;-82
2022/09/27 06:03:42;;;;;;;9.52;3.22;;;9.20;99.90;;;;;;4961532;28;20061;-81
2022/09/27 06:06:09;;;;;;;3.88;2.03;;;9.20;99.90;;;;;;4945462;28;20058;-82
2022/09/27 06:08:36;;;;;;;12.10;1.98;;;9.20;99.90;;;;;;4943191;28;20046;-82
2022/09/27 06:11:05;;;;;;;9.18;3.65;;;9.20;99.90;;;;;;4944865;28;20505;-82
2022/09/27 06:13:38;;;;;;;6.63;2.78;;;9.20;99.90;;;;;;4957381;28;20044;-82
2022/09/27 06:16:04;;;;;;;5.95;2.70;;;9.20;99.90;;;;;;4964989;28;20027;-82
2022/09/27 06:18:30;;;;;;;7.55;3.30;;;9.30;99.90;;;;;;4936541;28;20511;-80
2022/09/27 06:20:58;;;;;;;6.53;2.70;;;9.30;99.90;;;;;;4949318;28;20137;-81
2022/09/27 06:23:24;;;;;;;3.22;2.53;;;9.30;99.90;;;;;;4951120;28;20152;-82
2022/09/27 06:25:50;;;;;;;2.70;1.58;;;9.30;99.90;;;;;;4942478;28;20070;-82
2022/09/27 06:28:15;;;;;;;4.57;1.98;;;9.30;99.90;;;;;;4935182;28;20049;-81
2022/09/27 06:30:45;;;;;;;4.93;1.95;;;9.30;99.90;;;;;;4947714;28;20118;-81
2022/09/27 06:33:12;;;;;;;5.95;2.40;;;9.40;99.90;;;;;;4961823;28;20692;-82
2022/09/27 06:35:39;;;;;;;5.80;2.97;;;9.40;99.90;;;;;;4948484;28;20115;-82
2022/09/27 06:38:07;;;;;;;10.35;2.25;;;9.40;99.90;;;;;;4965753;28;20050;-82
2022/09/27 06:40:33;;;;;;;9.55;2.55;;;9.40;99.90;;;;;;4962276;28;20038;-82
2022/09/27 06:43:08;;;;;;;7.28;2.22;;;9.40;99.90;;;;;;4932035;28;20047;-82
2022/09/27 06:45:38;;;;;;;4.50;2.53;;;9.40;99.90;;;;;;4951157;28;20514;-82
2022/09/27 06:48:05;;;;;;;1.50;0.70;;;9.50;99.90;;;;;;4951395;28;20058;-82
2022/09/27 06:50:33;;;;;;;6.80;2.28;;;9.50;99.90;;;;;;4961067;28;20039;-81
2022/09/27 06:52:59;;;;;;;8.50;1.92;;;9.50;99.90;;;;;;4963572;28;20049;-81
2022/09/27 06:55:24;;;;;;;1.73;1.10;;;9.50;99.90;;;;;;4949008;28;20034;-81
2022/09/27 07:00:38;;;;;;;3.00;1.80;;;9.50;99.90;;;;;;4960278;28;20046;-81
2022/09/27 07:03:04;;;;;;;2.08;0.60;;;9.50;99.90;;;;;;4960424;28;20043;-81
2022/09/27 07:05:30;;;;;;;2.78;1.52;;;9.50;99.90;;;;;;4964667;28;20038;-81
2022/09/27 07:07:56;;;;;;;4.53;1.08;;;9.60;99.90;;;;;;4966651;28;20126;-81
2022/09/27 07:10:24;;;;;;;6.47;1.38;;;9.60;99.90;;;;;;4944306;28;20525;-81
2022/09/27 07:12:51;;;;;;;4.07;1.50;;;9.60;99.90;;;;;;4933956;28;21497;-81
2022/09/27 07:15:19;;;;;;;5.53;1.30;;;9.70;99.90;;;;;;4943812;28;20035;-81
2022/09/27 07:17:45;;;;;;;1.75;1.10;;;9.70;99.90;;;;;;4946780;28;20476;-81
2022/09/27 07:20:10;;;;;;;5.97;2.05;;;9.70;99.90;;;;;;4964244;28;20118;-81
2022/09/27 07:22:41;;;;;;;5.22;1.80;;;9.70;99.90;;;;;;4960688;28;20036;-81
2022/09/27 07:25:07;;;;;;;4.28;1.10;;;9.70;99.90;;;;;;4928377;28;20146;-81
2022/09/27 07:27:33;;;;;;;4.88;1.60;;;9.80;99.90;;;;;;4927470;28;20539;-81
2022/09/27 07:29:59;;;;;;;2.03;1.15;;;9.80;99.90;;;;;;4944866;28;20042;-81
2022/09/27 07:32:25;;;;;;;3.47;1.50;;;9.90;99.90;;;;;;4932945;28;20035;-81
2022/09/27 07:34:51;;;;;;;3.53;1.38;;;9.90;99.90;;;;;;4959148;28;20494;-82
2022/09/27 07:37:16;;;;;;;3.40;1.58;;;9.90;99.90;;;;;;4930037;28;20050;-81
2022/09/27 07:39:43;;;;;;;3.47;1.60;;;10.00;99.90;;;;;;4949434;28;20450;-82
2022/09/27 07:42:09;;;;;;;3.13;1.80;;;10.00;99.90;;;;;;4945369;28;20038;-81
2022/09/27 07:44:34;;;;;;;4.68;1.73;;;10.10;99.90;;;;;;4932714;28;20043;-82
2022/09/27 07:47:00;;;;;;;5.40;1.48;;;10.10;99.90;;;;;;4964355;28;20054;-82
2022/09/27 07:49:25;;;;;;;2.80;1.73;;;10.10;99.90;;;;;;4961048;28;20043;-81
2022/09/27 07:51:52;;;;;;;3.03;1.27;;;10.20;99.90;;;;;;4945108;28;20121;-81
2022/09/27 07:54:18;;;;;;;3.35;0.98;;;10.30;99.90;;;;;;4946242;28;20122;-81
2022/09/27 07:56:44;;;;;;;3.13;1.50;;;10.30;99.90;;;;;;4944546;28;20527;-81
2022/09/27 07:59:10;;;;;;;1.50;0.73;;;10.40;99.90;;;;;;4949416;28;20142;-81
2022/09/27 08:01:36;;;;;;;3.63;1.35;;;10.40;99.90;;;;;;4945701;28;20117;-81
2022/09/27 08:04:01;;;;;;;4.22;1.35;;;10.40;99.90;;;;;;4964973;28;20030;-81
2022/09/27 08:06:28;;;;;;;1.85;0.77;;;10.50;99.90;;;;;;4961461;28;20019;-81
2022/09/27 08:08:54;;;;;;;0.38;0.30;;;10.50;99.90;;;;;;4960486;28;20031;-82
2022/09/27 08:11:20;;;;;;;5.20;0.90;;;10.50;99.90;;;;;;4959160;28;20027;-82
2022/09/27 08:13:48;;;;;;;2.50;0.88;;;10.60;99.90;;;;;;4961764;28;20074;-81
2022/09/27 08:16:14;;;;;;;1.77;0.80;;;10.60;99.90;;;;;;4961486;28;20027;-81
2022/09/27 08:18:39;;;;;;;1.80;0.70;;;10.60;99.90;;;;;;4941045;28;20028;-81
2022/09/27 08:21:05;;;;;;;3.83;0.70;;;10.70;99.90;;;;;;4944647;28;20086;-81
2022/09/27 08:23:31;;;;;;;1.95;0.90;;;10.70;99.90;;;;;;4960981;28;20042;-81
2022/09/27 08:25:58;;;;;;;0.93;0.65;;;10.70;99.90;;;;;;4960612;28;20043;-81
2022/09/27 08:28:24;;;;;;;3.47;1.08;;;10.70;99.90;;;;;;4946881;28;20035;-81
2022/09/27 08:30:58;;;;;;;2.40;0.68;;;10.80;99.90;;;;;;4960694;28;20082;-81
2022/09/27 08:33:24;;;;;;;1.63;0.65;;;10.80;99.90;;;;;;4931511;28;20526;-81
2022/09/27 08:35:50;;;;;;;3.78;0.90;;;10.90;99.90;;;;;;4945923;28;20050;-81
2022/09/27 08:38:16;;;;;;;5.18;1.10;;;11.10;99.90;;;;;;4958494;28;20050;-81
2022/09/27 08:41:00;;;;;;;1.92;0.90;;;11.20;99.90;;;;;;4959692;28;20037;-81
2022/09/27 08:43:29;;;;;;;4.88;1.15;;;11.30;99.90;;;;;;4942314;28;20046;-81
2022/09/27 08:46:12;;;;;;;2.70;0.90;;;11.40;99.90;;;;;;4961128;28;20038;-81
2022/09/27 08:48:38;;;;;;;3.17;0.90;;;11.50;99.90;;;;;;4963711;28;20499;-81
2022/09/27 08:51:05;;;;;;;1.88;1.00;;;11.60;99.90;;;;;;4953869;28;20062;-81
2022/09/27 08:53:45;;;;;;;2.88;1.40;;;11.60;99.90;;;;;;4954741;28;20701;-81
2022/09/27 08:56:11;;;;;;;1.85;0.95;;;11.80;99.90;;;;;;4933298;28;20050;-81
2022/09/27 08:58:42;;;;;;;3.03;0.93;;;11.80;99.90;;;;;;4946104;28;20648;-81
2022/09/27 09:01:14;;;;;;;2.22;1.00;;;11.90;99.90;;;;;;4933536;28;20039;-81
2022/09/27 09:03:49;;;;;;;4.10;1.00;;;11.90;99.90;;;;;;4932397;28;20027;-81
2022/09/27 09:06:40;;;;;;;4.53;1.15;;;12.00;99.90;;;;;;4932681;28;20050;-80
2022/09/27 09:09:26;;;;;;;0.82;0.70;;;12.10;99.90;;;;;;4947301;28;20031;-80
2022/09/27 09:15:07;;;;;;;3.03;1.83;;;12.00;99.90;;;;;;4960555;28;20467;-80
2022/09/27 09:18:10;;;;;;;4.75;1.35;;;12.00;99.90;;;;;;4962032;28;20049;-80
2022/09/27 09:21:17;;;;;;;2.85;0.50;;;11.90;99.90;;;;;;4959479;28;20114;-81
2022/09/27 09:23:56;;;;;;;3.67;1.00;;;11.80;99.90;;;;;;4943179;28;20027;-81
2022/09/27 09:26:41;;;;;;;1.40;0.93;;;11.80;99.90;;;;;;4941564;28;20171;-81
2022/09/27 09:29:21;;;;;;;1.33;0.63;;;11.80;99.90;;;;;;4945001;28;20038;-81
2022/09/27 09:32:39;;;;;;;1.13;0.75;;;11.70;99.90;;;;;;4959226;28;20035;-81
2022/09/27 09:35:12;;;;;;;2.30;0.82;;;11.60;99.90;;;;;;4948750;28;20113;-81
2022/09/27 09:37:46;;;;;;;0.88;0.60;;;11.60;99.90;;;;;;4916979;29;20507;-81
2022/09/27 09:40:40;;;;;;;1.58;0.80;;;11.60;99.90;;;;;;4930812;28;20031;-81
2022/09/27 09:43:11;;;;;;;3.38;0.88;;;11.50;99.90;;;;;;4977366;28;20389;-81
2022/09/27 09:45:47;;;;;;;6.65;1.13;;;11.50;99.90;;;;;;4955299;28;20039;-81
2022/09/27 09:48:16;;;;;;;2.20;0.95;;;11.50;99.90;;;;;;4934074;28;20045;-81
2022/09/27 09:50:46;;;;;;;0.70;0.70;;;11.50;99.90;;;;;;4961201;28;20110;-81
2022/09/27 09:53:27;;;;;;;2.88;1.00;;;11.60;99.90;;;;;;4952231;28;20038;-81
2022/09/27 09:56:16;;;;;;;2.92;1.48;;;11.60;99.90;;;;;;4944776;28;20049;-81
2022/09/27 09:58:57;;;;;;;1.98;1.60;;;11.60;99.90;;;;;;4953326;28;20399;-81
2022/09/27 10:01:33;;;;;;;2.90;1.40;;;11.70;99.90;;;;;;4940485;28;20042;-81
2022/09/27 10:03:58;;;;;;;1.67;1.57;;;11.70;99.90;;;;;;4951056;28;20039;-81
2022/09/27 10:06:24;;;;;;;1.85;1.15;;;11.80;99.90;;;;;;4949158;28;20035;-81
2022/09/27 10:08:53;;;;;;;3.38;1.60;;;11.80;99.90;;;;;;4964356;28;20030;-82
2022/09/27 10:11:43;;;;;;;1.38;1.10;;;11.80;99.90;;;;;;4946822;28;20491;-81
2022/09/27 10:14:14;;;;;;;3.88;1.55;;;11.80;99.90;;;;;;4962857;28;20443;-81
2022/09/27 10:16:41;;;;;;;2.38;1.70;;;11.90;99.90;;;;;;4960307;28;20043;-81
2022/09/27 10:19:07;;;;;;;4.68;1.60;;;11.80;99.90;;;;;;4960987;28;20438;-82
2022/09/27 10:21:33;;;;;;;1.15;0.93;;;11.80;99.90;;;;;;4945608;28;20031;-81
2022/09/27 10:24:14;;;;;;;3.50;1.50;;;11.80;99.90;;;;;;4964627;28;20051;-82
2022/09/27 10:26:42;;;;;;;1.98;0.93;;;11.90;99.90;;;;;;4960690;28;20034;-81
2022/09/27 10:29:33;;;;;;;2.67;1.38;;;12.00;99.90;;;;;;4965812;28;20605;-81
2022/09/27 10:32:00;;;;;;;3.28;1.70;;;11.90;99.90;;;;;;4942540;28;20030;-81
2022/09/27 10:34:39;;;;;;;2.42;1.45;;;12.00;99.90;;;;;;4947841;28;20070;-81
2022/09/27 10:37:11;;;;;;;2.50;1.50;;;12.00;99.90;;;;;;4948805;28;20066;-81
2022/09/27 10:39:37;;;;;;;1.88;1.33;;;12.00;99.90;;;;;;4964088;28;20035;-81
2022/09/27 10:42:37;;;;;;;1.95;1.73;;;12.10;99.90;;;;;;4932086;28;20085;-81
2022/09/27 10:45:26;;;;;;;1.92;1.30;;;12.30;99.90;;;;;;4966394;28;20031;-82
2022/09/27 10:47:51;;;;;;;1.83;1.50;;;12.30;99.90;;;;;;4962829;28;20054;-81
2022/09/27 10:50:28;;;;;;;1.35;1.25;;;12.40;99.90;;;;;;4928958;28;20054;-82
2022/09/27 10:53:04;;;;;;;2.35;1.50;;;12.60;99.90;;;;;;4961484;28;20069;-82
2022/09/27 10:55:33;;;;;;;1.63;1.15;;;12.60;99.90;;;;;;4954964;28;20045;-82
2022/09/27 10:57:58;;;;;;;1.48;1.30;;;12.80;99.90;;;;;;4947174;28;20121;-81
2022/09/27 11:00:30;;;;;;;3.33;1.05;;;12.80;99.90;;;;;;4942071;28;20054;-82
2022/09/27 11:02:56;;;;;;;2.20;1.65;;;12.80;99.90;;;;;;4943058;28;20035;-82
2022/09/27 11:05:24;;;;;;;5.72;1.48;;;12.80;99.90;;;;;;4929641;28;20034;-82
2022/09/27 11:07:57;;;;;;;3.28;1.27;;;12.80;99.90;;;;;;4960622;28;20035;-82
2022/09/27 11:10:30;;;;;;;3.45;1.50;;;12.90;99.90;;;;;;4931005;28;20055;-82
2022/09/27 11:13:15;;;;;;;3.00;1.13;;;13.00;99.90;;;;;;4945296;28;20035;-82
2022/09/27 11:15:53;;;;;;;2.00;1.33;;;12.90;99.90;;;;;;4943050;28;20470;-82
2022/09/27 11:18:59;;;;;;;1.13;0.95;;;13.00;99.90;;;;;;4963167;28;20039;-82
2022/09/27 11:22:07;;;;;;;1.02;0.90;;;12.80;99.90;;;;;;4962583;28;20043;-82
2022/09/27 11:24:36;;;;;;;2.83;1.02;;;12.90;99.90;;;;;;4938364;28;20031;-82
2022/09/27 11:27:20;;;;;;;1.98;1.05;;;13.00;99.90;;;;;;4940972;28;20058;-82
2022/09/27 11:30:11;;;;;;;3.25;1.10;;;13.10;99.90;;;;;;4947044;28;20032;-81
2022/09/27 11:33:14;;;;;;;1.17;0.80;;;13.20;99.90;;;;;;4948276;28;20063;-81
2022/09/27 11:36:13;;;;;;;2.65;1.00;;;13.40;99.90;;;;;;4964787;28;20562;-82
2022/09/27 11:39:01;;;;;;;2.97;1.20;;;13.50;99.90;;;;;;4932600;28;20039;-81
2022/09/27 11:42:07;;;;;;;4.63;1.50;;;13.60;99.90;;;;;;4958704;28;20041;-81
2022/09/27 11:44:39;;;;;;;2.35;0.98;;;13.50;99.90;;;;;;4957014;28;20085;-80
2022/09/27 11:47:41;;;;;;;6.05;1.40;;;13.50;99.90;;;;;;4948399;28;20041;-82
2022/09/27 11:50:23;;;;;;;2.50;1.70;;;13.40;99.90;;;;;;4929921;28;20391;-80
2022/09/27 11:53:14;;;;;;;1.50;0.80;;;13.50;99.90;;;;;;4946197;28;20042;-82
2022/09/27 11:55:58;;;;;;;1.73;1.40;;;13.50;99.90;;;;;;4961919;28;20461;-81
2022/09/27 11:58:52;;;;;;;3.67;1.38;;;13.60;99.90;;;;;;4961209;28;20039;-82
2022/09/27 12:01:43;;;;;;;2.15;1.40;;;13.80;99.90;;;;;;4940170;28;20043;-81
2022/09/27 12:04:42;;;;;;;2.17;1.50;;;13.90;99.90;;;;;;4957851;28;20117;-81
2022/09/27 12:07:30;;;;;;;2.28;1.30;;;14.10;99.90;;;;;;4956978;28;20035;-82
2022/09/27 12:09:59;;;;;;;1.60;1.25;;;14.40;99.90;;;;;;4959654;28;20487;-82
2022/09/27 12:12:29;;;;;;;2.75;1.65;;;14.50;99.90;;;;;;4935204;28;20620;-81
2022/09/27 12:14:59;;;;;;;3.03;1.85;;;14.40;99.90;;;;;;4930304;28;20039;-81
2022/09/27 12:17:28;;;;;;;4.50;2.28;;;14.70;99.90;;;;;;4956178;28;20145;-81
2022/09/27 12:19:55;;;;;;;2.55;1.88;;;14.70;99.90;;;;;;4931067;28;20305;-81
2022/09/27 12:22:26;;;;;;;2.50;1.30;;;14.80;99.90;;;;;;4942433;28;20058;-80
2022/09/27 12:24:52;;;;;;;3.58;2.13;;;14.80;99.90;;;;;;4913168;28;20035;-79
2022/09/27 12:27:51;;;;;;;2.97;2.30;;;14.80;99.90;;;;;;4898369;28;20038;-80
2022/09/27 12:30:17;;;;;;;3.22;2.60;;;14.70;99.90;;;;;;4941085;28;20032;-80
2022/09/27 12:32:46;;;;;;;4.75;2.53;;;14.50;99.90;;;;;;4911401;29;20039;-81
2022/09/27 12:35:22;;;;;;;3.42;2.13;;;14.30;99.90;;;;;;4946143;28;20031;-81
2022/09/27 12:37:53;;;;;;;4.53;2.80;;;14.00;99.90;;;;;;4939827;28;20042;-80
2022/09/27 12:40:23;;;;;;;3.53;2.45;;;13.70;99.90;;;;;;4928930;28;20086;-81
2022/09/27 12:43:09;;;;;;;2.58;2.00;;;13.40;99.90;;;;;;4955910;28;20035;-80
2022/09/27 12:45:40;;;;;;;2.65;1.80;;;13.10;99.90;;;;;;4940868;28;20094;-83
2022/09/27 12:48:10;;;;;;;4.07;2.00;;;12.90;99.90;;;;;;4942949;28;20046;-80
2022/09/27 12:50:41;;;;;;;4.32;1.65;;;12.70;99.90;;;;;;4947027;28;20502;-81
2022/09/27 12:53:13;;;;;;;3.63;2.38;;;12.60;99.90;;;;;;4931119;28;21051;-81
2022/09/27 12:55:38;;;;;;;4.00;2.72;;;12.60;99.90;;;;;;4937230;28;20045;-81
2022/09/27 12:58:16;;;;;;;3.63;2.42;;;12.60;99.90;;;;;;4952317;28;20574;-81
2022/09/27 13:01:14;;;;;;;3.10;2.40;;;12.50;99.90;;;;;;4962830;28;20061;-81
2022/09/27 13:04:01;;;;;;;1.73;1.38;;;12.60;99.90;;;;;;4915987;28;20035;-82
2022/09/27 13:07:17;;;;;;;4.80;3.25;;;12.60;99.90;;;;;;4950038;28;20045;-81
2022/09/27 13:10:11;;;;;;;3.97;2.80;;;12.50;99.90;;;;;;4939731;28;20067;-81
2022/09/27 13:12:38;;;;;;;3.58;2.58;;;12.40;99.90;;;;;;4946784;28;20046;-82
2022/09/27 13:15:31;;;;;;;5.25;2.15;;;12.30;99.90;;;;;;4941163;28;20038;-82
2022/09/27 13:17:58;;;;;;;3.38;2.30;;;12.30;99.90;;;;;;4943163;28;20051;-83
2022/09/27 13:20:38;;;;;;;2.95;2.40;;;12.30;99.90;;;;;;4955758;28;20042;-83
2022/09/27 13:23:10;;;;;;;2.17;1.60;;;12.20;99.90;;;;;;4939525;28;20038;-83